RXJ2518 LGIR-LGSK
Flight info
| Callsign | RXJ2518 |
|---|---|
| Flight time | 0h 49m |
| Altitude | 32000 |
| Route | EPALO M749 MIL/N0404F240 M749 ATV B1 SIGFO |
| Aircraft | B737/M-SDE2E3FGHIRWXY/LB1 |
Departure
| Time | 2026-04-20 16:39 |
|---|---|
| Airport | Heraklion International Nikos Kazantzakis Airport (LGIR) |
Arrival
| Time | 2026-04-20 17:28 |
|---|---|
| Airport | Skiathos Island National Airport (LGSK) |
| Time | Latitude | Longitude | Altitude | Speed | Heading |
|---|---|---|---|---|---|
| 2026-04-20 16:34 | 35.33850 | 25.18348 | 96 ft | 8 kts | 98° |
| 2026-04-20 16:34 | 35.33845 | 25.18415 | 95 ft | 8 kts | 93° |
| 2026-04-20 16:34 | 35.33840 | 25.18484 | 93 ft | 8 kts | 94° |
| 2026-04-20 16:34 | 35.33837 | 25.18552 | 92 ft | 8 kts | 93° |
| 2026-04-20 16:35 | 35.33833 | 25.18617 | 92 ft | 8 kts | 95° |
| 2026-04-20 16:35 | 35.33828 | 25.18680 | 91 ft | 7 kts | 95° |
| 2026-04-20 16:35 | 35.33823 | 25.18741 | 94 ft | 7 kts | 96° |
| 2026-04-20 16:35 | 35.33820 | 25.18801 | 91 ft | 7 kts | 94° |
| 2026-04-20 16:36 | 35.33816 | 25.18858 | 90 ft | 7 kts | 95° |
| 2026-04-20 16:36 | 35.33816 | 25.18870 | 90 ft | 0 kts | 93° |
| 2026-04-20 16:37 | 35.33815 | 25.18873 | 90 ft | 4 kts | 93° |
| 2026-04-20 16:37 | 35.33834 | 25.18963 | 89 ft | 13 kts | 57° |
| 2026-04-20 16:38 | 35.33895 | 25.19022 | 89 ft | 6 kts | 0° |
| 2026-04-20 16:38 | 35.33904 | 25.19002 | 89 ft | 6 kts | 284° |
| 2026-04-20 16:38 | 35.33937 | 25.18588 | 87 ft | 97 kts | 275° |
| 2026-04-20 16:38 | 35.34010 | 25.17447 | 213 ft | 165 kts | 274° |
| 2026-04-20 16:39 | 35.34106 | 25.15902 | 884 ft | 195 kts | 278° |
| 2026-04-20 16:39 | 35.34394 | 25.14254 | 1936 ft | 193 kts | 299° |
| 2026-04-20 16:39 | 35.35340 | 25.13290 | 3282 ft | 171 kts | 346° |
| 2026-04-20 16:39 | 35.36489 | 25.13123 | 4387 ft | 169 kts | 352° |
| 2026-04-20 16:40 | 35.37653 | 25.12886 | 5343 ft | 169 kts | 349° |
| 2026-04-20 16:40 | 35.38831 | 25.12608 | 5747 ft | 172 kts | 348° |
| 2026-04-20 16:40 | 35.40083 | 25.12279 | 6005 ft | 205 kts | 347° |
| 2026-04-20 16:40 | 35.41620 | 25.11839 | 6048 ft | 247 kts | 346° |
| 2026-04-20 16:41 | 35.43335 | 25.11311 | 6001 ft | 257 kts | 345° |
| 2026-04-20 16:41 | 35.45059 | 25.10747 | 5982 ft | 261 kts | 345° |
| 2026-04-20 16:41 | 35.46804 | 25.10151 | 6063 ft | 261 kts | 344° |
| 2026-04-20 16:41 | 35.48573 | 25.09528 | 6759 ft | 264 kts | 344° |
| 2026-04-20 16:42 | 35.50316 | 25.08902 | 8027 ft | 260 kts | 343° |
| 2026-04-20 16:42 | 35.52055 | 25.08270 | 9125 ft | 262 kts | 343° |
| 2026-04-20 16:42 | 35.53813 | 25.07625 | 10169 ft | 265 kts | 343° |
| 2026-04-20 16:42 | 35.55593 | 25.06968 | 11083 ft | 271 kts | 343° |
| 2026-04-20 16:43 | 35.57474 | 25.06270 | 11491 ft | 297 kts | 343° |
| 2026-04-20 16:43 | 35.59545 | 25.05500 | 11775 ft | 323 kts | 343° |
| 2026-04-20 16:43 | 35.61730 | 25.04686 | 12511 ft | 333 kts | 342° |
| 2026-04-20 16:43 | 35.63962 | 25.03854 | 13450 ft | 336 kts | 342° |
| 2026-04-20 16:44 | 35.66224 | 25.03010 | 14355 ft | 340 kts | 342° |
| 2026-04-20 16:44 | 35.68497 | 25.02161 | 15224 ft | 343 kts | 342° |
| 2026-04-20 16:44 | 35.70757 | 25.01316 | 16104 ft | 345 kts | 342° |
| 2026-04-20 16:44 | 35.73053 | 25.00402 | 16941 ft | 349 kts | 339° |
| 2026-04-20 16:45 | 35.75340 | 24.99352 | 17771 ft | 352 kts | 338° |
| 2026-04-20 16:45 | 35.77635 | 24.98250 | 18577 ft | 356 kts | 337° |
| 2026-04-20 16:45 | 35.79948 | 24.97135 | 19317 ft | 358 kts | 337° |
| 2026-04-20 16:45 | 35.82283 | 24.96015 | 20060 ft | 361 kts | 337° |
| 2026-04-20 16:46 | 35.84638 | 24.94894 | 20796 ft | 364 kts | 337° |
| 2026-04-20 16:46 | 35.87009 | 24.93772 | 21516 ft | 367 kts | 338° |
| 2026-04-20 16:46 | 35.89402 | 24.92643 | 22223 ft | 370 kts | 338° |
| 2026-04-20 16:46 | 35.91812 | 24.91507 | 22917 ft | 373 kts | 337° |
| 2026-04-20 16:47 | 35.94249 | 24.90359 | 23572 ft | 376 kts | 338° |
| 2026-04-20 16:47 | 35.96707 | 24.89200 | 23994 ft | 380 kts | 337° |
| 2026-04-20 16:47 | 35.99174 | 24.88036 | 24000 ft | 379 kts | 337° |
| 2026-04-20 16:47 | 36.01639 | 24.86873 | 24016 ft | 380 kts | 338° |
| 2026-04-20 16:48 | 36.04108 | 24.85707 | 24022 ft | 379 kts | 338° |
| 2026-04-20 16:48 | 36.06572 | 24.84542 | 24032 ft | 379 kts | 338° |
| 2026-04-20 16:48 | 36.09038 | 24.83374 | 24031 ft | 379 kts | 338° |
| 2026-04-20 16:48 | 36.11501 | 24.82206 | 24022 ft | 379 kts | 338° |
| 2026-04-20 16:49 | 36.13967 | 24.81035 | 24026 ft | 380 kts | 338° |
| 2026-04-20 16:49 | 36.16433 | 24.79864 | 24024 ft | 380 kts | 338° |
| 2026-04-20 16:49 | 36.18900 | 24.78691 | 24017 ft | 380 kts | 338° |
| 2026-04-20 16:49 | 36.21366 | 24.77518 | 24016 ft | 380 kts | 338° |
| 2026-04-20 16:50 | 36.23833 | 24.76343 | 24016 ft | 380 kts | 338° |
| 2026-04-20 16:50 | 36.26299 | 24.75168 | 24014 ft | 380 kts | 338° |
| 2026-04-20 16:50 | 36.28735 | 24.74008 | 24014 ft | 380 kts | 338° |
| 2026-04-20 16:50 | 36.31210 | 24.72827 | 24015 ft | 380 kts | 338° |
| 2026-04-20 16:51 | 36.33674 | 24.71651 | 24014 ft | 380 kts | 338° |
| 2026-04-20 16:51 | 36.36140 | 24.70473 | 24011 ft | 380 kts | 338° |
| 2026-04-20 16:51 | 36.38613 | 24.69291 | 24016 ft | 380 kts | 338° |
| 2026-04-20 16:51 | 36.41080 | 24.68111 | 24010 ft | 380 kts | 338° |
| 2026-04-20 16:52 | 36.43547 | 24.66930 | 24012 ft | 380 kts | 338° |
| 2026-04-20 16:52 | 36.46015 | 24.65749 | 24011 ft | 380 kts | 338° |
| 2026-04-20 16:52 | 36.48480 | 24.64567 | 24010 ft | 380 kts | 338° |
| 2026-04-20 16:52 | 36.50923 | 24.63395 | 24009 ft | 380 kts | 338° |
| 2026-04-20 16:53 | 36.53389 | 24.62212 | 24008 ft | 380 kts | 338° |
| 2026-04-20 16:53 | 36.55857 | 24.61027 | 24005 ft | 380 kts | 338° |
| 2026-04-20 16:53 | 36.58327 | 24.59840 | 24006 ft | 380 kts | 338° |
| 2026-04-20 16:53 | 36.60805 | 24.58648 | 24009 ft | 380 kts | 338° |
| 2026-04-20 16:54 | 36.63273 | 24.57460 | 24007 ft | 381 kts | 338° |
| 2026-04-20 16:54 | 36.65745 | 24.56269 | 24004 ft | 381 kts | 339° |
| 2026-04-20 16:54 | 36.68213 | 24.55080 | 24004 ft | 381 kts | 339° |
| 2026-04-20 16:54 | 36.70654 | 24.53903 | 23999 ft | 381 kts | 339° |
| 2026-04-20 16:55 | 36.73127 | 24.52709 | 24001 ft | 381 kts | 339° |
| 2026-04-20 16:55 | 36.75586 | 24.51462 | 23998 ft | 381 kts | 335° |
| 2026-04-20 16:55 | 36.77974 | 24.50035 | 24000 ft | 381 kts | 334° |
| 2026-04-20 16:55 | 36.80350 | 24.48561 | 23998 ft | 381 kts | 334° |
| 2026-04-20 16:56 | 36.82724 | 24.47073 | 23998 ft | 381 kts | 334° |
| 2026-04-20 16:56 | 36.85096 | 24.45588 | 23997 ft | 381 kts | 334° |
| 2026-04-20 16:56 | 36.87476 | 24.44101 | 23996 ft | 381 kts | 334° |
| 2026-04-20 16:56 | 36.89849 | 24.42623 | 23995 ft | 381 kts | 334° |
| 2026-04-20 16:57 | 36.92225 | 24.41146 | 23996 ft | 381 kts | 334° |
| 2026-04-20 16:57 | 36.94602 | 24.39671 | 23992 ft | 382 kts | 334° |
| 2026-04-20 16:57 | 36.96986 | 24.38192 | 23996 ft | 382 kts | 334° |
| 2026-04-20 16:57 | 36.99335 | 24.36734 | 23996 ft | 382 kts | 334° |
| 2026-04-20 16:58 | 37.01715 | 24.35257 | 23992 ft | 382 kts | 334° |
| 2026-04-20 16:58 | 37.04096 | 24.33778 | 23992 ft | 382 kts | 334° |
| 2026-04-20 16:58 | 37.06478 | 24.32297 | 23991 ft | 382 kts | 334° |
| 2026-04-20 16:58 | 37.08859 | 24.30816 | 23987 ft | 382 kts | 334° |
| 2026-04-20 16:59 | 37.11236 | 24.29336 | 23989 ft | 382 kts | 334° |
| 2026-04-20 16:59 | 37.13616 | 24.27854 | 23985 ft | 382 kts | 334° |
| 2026-04-20 16:59 | 37.15993 | 24.26371 | 23987 ft | 382 kts | 334° |
| 2026-04-20 16:59 | 37.18373 | 24.24887 | 23982 ft | 382 kts | 334° |
| 2026-04-20 17:00 | 37.23136 | 24.21912 | 23980 ft | 382 kts | 334° |
| 2026-04-20 17:00 | 37.25522 | 24.20420 | 23979 ft | 383 kts | 334° |
| 2026-04-20 17:00 | 37.27909 | 24.18927 | 23983 ft | 383 kts | 334° |
| 2026-04-20 17:01 | 37.30262 | 24.17454 | 23976 ft | 383 kts | 334° |
| 2026-04-20 17:01 | 37.32650 | 24.15958 | 23979 ft | 383 kts | 334° |
| 2026-04-20 17:01 | 37.35039 | 24.14460 | 23978 ft | 383 kts | 334° |
| 2026-04-20 17:01 | 37.37424 | 24.12964 | 23977 ft | 383 kts | 334° |
| 2026-04-20 17:02 | 37.39815 | 24.11463 | 23971 ft | 383 kts | 334° |
| 2026-04-20 17:02 | 37.42209 | 24.09958 | 23971 ft | 384 kts | 334° |
| 2026-04-20 17:02 | 37.44600 | 24.08455 | 23971 ft | 384 kts | 334° |
| 2026-04-20 17:02 | 37.46988 | 24.06952 | 23971 ft | 384 kts | 334° |
| 2026-04-20 17:03 | 37.49380 | 24.05447 | 23969 ft | 384 kts | 334° |
| 2026-04-20 17:03 | 37.51738 | 24.03961 | 23973 ft | 384 kts | 334° |
| 2026-04-20 17:03 | 37.54130 | 24.02453 | 23970 ft | 384 kts | 334° |
| 2026-04-20 17:03 | 37.56525 | 24.00941 | 23972 ft | 385 kts | 334° |
| 2026-04-20 17:04 | 37.58923 | 23.99427 | 23970 ft | 385 kts | 334° |
| 2026-04-20 17:04 | 37.61326 | 23.97908 | 23968 ft | 386 kts | 334° |
| 2026-04-20 17:04 | 37.63728 | 23.96389 | 23959 ft | 386 kts | 334° |
| 2026-04-20 17:04 | 37.66133 | 23.94867 | 23967 ft | 386 kts | 334° |
| 2026-04-20 17:05 | 37.67720 | 23.93862 | 23966 ft | 387 kts | 334° |
| 2026-04-20 17:05 | 37.70911 | 23.91840 | 23962 ft | 387 kts | 334° |
| 2026-04-20 17:05 | 37.73320 | 23.90311 | 23962 ft | 387 kts | 334° |
| 2026-04-20 17:05 | 37.75731 | 23.88781 | 23968 ft | 388 kts | 334° |
| 2026-04-20 17:06 | 37.78147 | 23.87246 | 23963 ft | 388 kts | 334° |
| 2026-04-20 17:06 | 37.80561 | 23.85711 | 23962 ft | 388 kts | 334° |
| 2026-04-20 17:06 | 37.82982 | 23.84171 | 23969 ft | 388 kts | 334° |
| 2026-04-20 17:06 | 37.85396 | 23.82635 | 23968 ft | 388 kts | 334° |
| 2026-04-20 17:07 | 37.87842 | 23.81188 | 23957 ft | 388 kts | 340° |
| 2026-04-20 17:07 | 37.90426 | 23.80194 | 23987 ft | 393 kts | 347° |
| 2026-04-20 17:07 | 37.93183 | 23.79697 | 23985 ft | 406 kts | 354° |
| 2026-04-20 17:07 | 37.95981 | 23.79345 | 23982 ft | 410 kts | 354° |
| 2026-04-20 17:08 | 37.98767 | 23.78979 | 23954 ft | 392 kts | 353° |
| 2026-04-20 17:08 | 38.01439 | 23.78614 | 23951 ft | 383 kts | 353° |
| 2026-04-20 17:08 | 38.04101 | 23.78241 | 23962 ft | 386 kts | 353° |
| 2026-04-20 17:08 | 38.06794 | 23.77858 | 23961 ft | 391 kts | 353° |
| 2026-04-20 17:09 | 38.09510 | 23.77470 | 23947 ft | 393 kts | 353° |
| 2026-04-20 17:09 | 38.12231 | 23.77081 | 23940 ft | 394 kts | 353° |
| 2026-04-20 17:09 | 38.14923 | 23.76697 | 23935 ft | 394 kts | 353° |
| 2026-04-20 17:09 | 38.17644 | 23.76308 | 23923 ft | 381 kts | 353° |
| 2026-04-20 17:10 | 38.20211 | 23.75939 | 23932 ft | 374 kts | 353° |
| 2026-04-20 17:10 | 38.22787 | 23.75566 | 23940 ft | 372 kts | 353° |
| 2026-04-20 17:10 | 38.25366 | 23.75192 | 23950 ft | 373 kts | 353° |
| 2026-04-20 17:10 | 38.27951 | 23.74816 | 23587 ft | 375 kts | 353° |
| 2026-04-20 17:11 | 38.30539 | 23.74440 | 23038 ft | 373 kts | 353° |
| 2026-04-20 17:11 | 38.33104 | 23.74067 | 22509 ft | 367 kts | 353° |
| 2026-04-20 17:11 | 38.35629 | 23.73700 | 21924 ft | 363 kts | 353° |
| 2026-04-20 17:11 | 38.38123 | 23.73338 | 21351 ft | 359 kts | 353° |
| 2026-04-20 17:12 | 38.40598 | 23.72977 | 20783 ft | 356 kts | 353° |
| 2026-04-20 17:12 | 38.43051 | 23.72620 | 20220 ft | 352 kts | 353° |
| 2026-04-20 17:12 | 38.45478 | 23.72266 | 19674 ft | 350 kts | 353° |
| 2026-04-20 17:12 | 38.47887 | 23.71915 | 19122 ft | 347 kts | 353° |
| 2026-04-20 17:13 | 38.50281 | 23.71566 | 18594 ft | 345 kts | 353° |
| 2026-04-20 17:13 | 38.52664 | 23.71218 | 18000 ft | 344 kts | 353° |
| 2026-04-20 17:13 | 38.55039 | 23.70871 | 17405 ft | 342 kts | 353° |
| 2026-04-20 17:13 | 38.57396 | 23.70526 | 16832 ft | 340 kts | 353° |
| 2026-04-20 17:14 | 38.59703 | 23.70189 | 16285 ft | 337 kts | 353° |
| 2026-04-20 17:14 | 38.62020 | 23.69850 | 15750 ft | 334 kts | 353° |
| 2026-04-20 17:14 | 38.64324 | 23.69512 | 15212 ft | 332 kts | 353° |
| 2026-04-20 17:14 | 38.66608 | 23.69178 | 14686 ft | 329 kts | 353° |
| 2026-04-20 17:15 | 38.68872 | 23.68845 | 14161 ft | 327 kts | 353° |
| 2026-04-20 17:15 | 38.71128 | 23.68514 | 13633 ft | 326 kts | 353° |
| 2026-04-20 17:15 | 38.73376 | 23.68184 | 13034 ft | 325 kts | 353° |
| 2026-04-20 17:15 | 38.75616 | 23.67855 | 12478 ft | 323 kts | 353° |
| 2026-04-20 17:16 | 38.77850 | 23.67526 | 11940 ft | 320 kts | 353° |
| 2026-04-20 17:16 | 38.80051 | 23.67203 | 11417 ft | 317 kts | 352° |
| 2026-04-20 17:16 | 38.82209 | 23.66885 | 10904 ft | 314 kts | 352° |
| 2026-04-20 17:16 | 38.84374 | 23.66566 | 10422 ft | 311 kts | 352° |
| 2026-04-20 17:17 | 38.86470 | 23.66257 | 10311 ft | 296 kts | 352° |
| 2026-04-20 17:17 | 38.88476 | 23.65962 | 10155 ft | 284 kts | 352° |
| 2026-04-20 17:17 | 38.90393 | 23.65679 | 10032 ft | 272 kts | 352° |
| 2026-04-20 17:17 | 38.92232 | 23.65408 | 9856 ft | 262 kts | 352° |
| 2026-04-20 17:18 | 38.94048 | 23.65139 | 9461 ft | 262 kts | 352° |
| 2026-04-20 17:18 | 38.95858 | 23.64872 | 9040 ft | 262 kts | 352° |
| 2026-04-20 17:18 | 38.97661 | 23.64606 | 8676 ft | 260 kts | 352° |
| 2026-04-20 17:18 | 38.99458 | 23.64342 | 8309 ft | 259 kts | 352° |
| 2026-04-20 17:19 | 39.01244 | 23.64079 | 7952 ft | 258 kts | 352° |
| 2026-04-20 17:19 | 39.03019 | 23.63817 | 7614 ft | 256 kts | 352° |
| 2026-04-20 17:19 | 39.04787 | 23.63556 | 7262 ft | 255 kts | 352° |
| 2026-04-20 17:19 | 39.06550 | 23.63296 | 6913 ft | 254 kts | 352° |
| 2026-04-20 17:20 | 39.07713 | 23.63125 | 6695 ft | 254 kts | 352° |
| 2026-04-20 17:20 | 39.10041 | 23.62781 | 6240 ft | 253 kts | 352° |
| 2026-04-20 17:20 | 39.11795 | 23.62521 | 5871 ft | 252 kts | 352° |
| 2026-04-20 17:20 | 39.12948 | 23.62351 | 5636 ft | 252 kts | 352° |
| 2026-04-20 17:21 | 39.14688 | 23.62093 | 5297 ft | 251 kts | 352° |
| 2026-04-20 17:21 | 39.16421 | 23.61837 | 4949 ft | 250 kts | 352° |
| 2026-04-20 17:21 | 39.18152 | 23.61588 | 4604 ft | 250 kts | 354° |
| 2026-04-20 17:21 | 39.19889 | 23.61527 | 4310 ft | 248 kts | 359° |
| 2026-04-20 17:22 | 39.21604 | 23.61544 | 4053 ft | 244 kts | 359° |
| 2026-04-20 17:22 | 39.23261 | 23.61565 | 4001 ft | 231 kts | 359° |
| 2026-04-20 17:22 | 39.24825 | 23.61534 | 3987 ft | 218 kts | 357° |
| 2026-04-20 17:22 | 39.26319 | 23.61475 | 3738 ft | 217 kts | 357° |
| 2026-04-20 17:23 | 39.27803 | 23.61414 | 3621 ft | 212 kts | 357° |
| 2026-04-20 17:23 | 39.29266 | 23.61354 | 3522 ft | 207 kts | 356° |
| 2026-04-20 17:23 | 39.30637 | 23.61111 | 3375 ft | 194 kts | 335° |
| 2026-04-20 17:23 | 39.31596 | 23.59995 | 3216 ft | 184 kts | 300° |
| 2026-04-20 17:24 | 39.31924 | 23.58399 | 3000 ft | 189 kts | 268° |
| 2026-04-20 17:24 | 39.31518 | 23.56793 | 2767 ft | 193 kts | 235° |
| 2026-04-20 17:24 | 39.30490 | 23.55715 | 2522 ft | 192 kts | 203° |
| 2026-04-20 17:24 | 39.29275 | 23.55180 | 2294 ft | 181 kts | 200° |
| 2026-04-20 17:25 | 39.28119 | 23.54650 | 2046 ft | 172 kts | 200° |
| 2026-04-20 17:25 | 39.27026 | 23.54151 | 1892 ft | 164 kts | 199° |
| 2026-04-20 17:25 | 39.25983 | 23.53687 | 1727 ft | 150 kts | 197° |
| 2026-04-20 17:25 | 39.25031 | 23.53289 | 1678 ft | 140 kts | 198° |
| 2026-04-20 17:26 | 39.24092 | 23.52893 | 1440 ft | 143 kts | 197° |
| 2026-04-20 17:26 | 39.23138 | 23.52536 | 1126 ft | 144 kts | 194° |
| 2026-04-20 17:26 | 39.22183 | 23.52210 | 860 ft | 140 kts | 194° |
| 2026-04-20 17:26 | 39.21253 | 23.51893 | 624 ft | 135 kts | 194° |
| 2026-04-20 17:27 | 39.20391 | 23.51548 | 439 ft | 125 kts | 200° |
| 2026-04-20 17:27 | 39.19574 | 23.51185 | 254 ft | 129 kts | 198° |
| 2026-04-20 17:27 | 39.18705 | 23.50800 | 174 ft | 131 kts | 197° |
| 2026-04-20 17:27 | 39.17892 | 23.50444 | 40 ft | 110 kts | 200° |
| 2026-04-20 17:28 | 39.17452 | 23.50243 | 31 ft | 27 kts | 199° |
| 2026-04-20 17:28 | 39.17293 | 23.50173 | 23 ft | 24 kts | 198° |
| 2026-04-20 17:28 | 39.17153 | 23.50107 | 20 ft | 20 kts | 200° |
| 2026-04-20 17:28 | 39.17111 | 23.50094 | 19 ft | 3 kts | 140° |
| 2026-04-20 17:29 | 39.17118 | 23.50109 | 21 ft | 2 kts | 24° |
| 2026-04-20 17:29 | 39.17215 | 23.50144 | 22 ft | 27 kts | 15° |
| 2026-04-20 17:29 | 39.17445 | 23.50241 | 31 ft | 26 kts | 19° |
| 2026-04-20 17:29 | 39.17558 | 23.50244 | 34 ft | 15 kts | 311° |
| 2026-04-20 17:30 | 39.17626 | 23.50182 | 33 ft | 10 kts | 308° |
| 2026-04-20 17:30 | 39.17626 | 23.50156 | 33 ft | 5 kts | 244° |
| 2026-04-20 17:30 | 39.17616 | 23.50149 | 33 ft | 0 kts | 196° |